Aeroporto :
LOGIN :

Iscrizione | Disclaimer

   EN    FR    IT 

 










Sommario :    VFR   VFR Marginale   IFR   IFR Intensivo   IFR Molto Intensivo
Visibilità : 
Base nubi : 
>= 8 km
>= 3000ft
5 / 8 km
1000 / 3000 ft
1500m / 5 km
500 / 1000 ft
800 / 1500m
200 / 500 ft
< 800m
< 200 ft
Simboli :   Temporali  Nebbia  Neve Forte  Precipitazioni Forti  Vento > 20 kt
SIGMETs :   Varie  Temporali  Ghiacco  Turbolenza  Onda orograficha  Ceneri Vulcaniche






- Altitudine del aeroporto : 297 ft
- Codice IATA : UIP


LFRQ - Quimper Pluguffan

ULTIMO METAR :
  • 131700Z AUTO 32008KT 9999 -RA FEW017/// BKN035/// BKN054/// ///CB 04/03 Q0996 TEMPO 30015G25KT 3000 SHRA SCT012CB BKN014

METARs OBSOLETI :
  • 131630Z AUTO 31021G31KT 4700 -SNRA BR SCT011/// OVC024/// ///CB 04/03 Q0997 TEMPO 28014KT 9999 NSW
  • 131600Z AUTO 31019KT 7000 2500 +RA SCT010/// BKN016/// BKN022/// ///CB 04/02 Q0997 TEMPO 21025G40KT 2000 RA OVC009 SCT020CB
  • 131530Z AUTO 22015KT 9999 SCT012/// BKN020/// BKN030/// ///CB 09/08 Q0997 TEMPO 2000 RA OVC009 SCT020CB BECMG 28014KT
  • 131500Z AUTO 22014KT 180V240 5000 -RA BR SCT015/// BKN027/// BKN037/// ///CB 09/08 Q0998 TEMPO 21025G40KT 2000 RA OVC009 SCT020CB
  • 131430Z AUTO 22013KT 190V250 9999 SCT025/// BKN033/// OVC040/// ///TCU 09/07 Q1000 TEMPO 21020G35KT 2000 +RA OVC005 SCT020CB

TAF AMD TAF LFRQ
Valido dal 13 a 16 ore il 14 a 12 ore UTC


131630Z 1316/1412 29014KT 9999 SCT015TCU BKN032
TEMPO 1316/1412 30015G25KT 3000 SHRA SCT012CB BKN014
PROB30
TEMPO 1316/1409 TSGSRA



MetMap, La meteo Aeronautica in un colpo d'occhio ! - Copyright ORBIFLY Dicembre 2007 - Disclaimer

ORBIFLY MET'MAP TEAM :

Programmazione e sviluppo : Alexandra Zaïnal
Concezione e sviluppo : Baudouin d'Aumeries
Co-Programmazione e sviluppo : Marc-Olivier Méhu
Supporto tecnico e logistico : Manuel Goepfert
Aiuto per la traduzione : Arnaldo La Scala

Contatto : metmap@orbifly.com




FONTI E CREDITI :

   NOAA